ICAO code: LHPR | IATA code: QGY | AFTN: LHPRZPZX | english | deutsch
Időjárás: 2017-10-18 07:30 (UTC) | Hőmérséklet: 15.1 °C | QNH: 1019.2 hPa | Szél: 3.9 m/s | Részletek
Live ATC LHPR
Webkameránk élőképe

Győr-Pér Repülőtér időjárás adatok

Metar:
METAR LHPR 180715Z 11006KT 6000 NSC 14/13 Q1019 RMK WH


Taf:
TAF LHPR 180515Z 1806/1815 11006KT 3000 BR NSC
BECMG 1806/1808 CAVOK
BECMG 1809/1812 18009KT


Jelenidő:
Párásság
Időbélyeg: 2017-10-18 07:30:00 UTC
Hőmérséklet:
15.1 °C
 
Harmatpont:
12.7 °C
 
Rel. páratartalom:
86%
 
QNH:
1019.2 hPa
 
Szélsebesség:
3.9 m/s
Max:
4.1 m/s
Szélirány:
120°
 
Csapadék (1 óra):
0.0 mm
 
Látótávolság:
8110 m
 
RVR:
>1500 m RWY30
 
1. felhőréteg mennyisége:
0 octa
 
1. felhőréteg alapja:
m


Az adatokat szolgáltatja
az Országos Meteorológiai Szolgálat
Győr-Pér Repülőtér | H 9099 Pér, Repülőtér | Tel: +36/96/559-200 | Fax: +36/96/559-202

ICAO code: LHPR | IATA code: QGY | AFTN: LHPRZPZX


weboldal tervezés: IRQ